createdAt,value
2023-05-17T00:01:06.353Z,90.21
2023-05-17T00:03:35.556Z,90.94
2023-05-17T00:06:03.472Z,91.04
2023-05-17T00:08:31.919Z,90.87
2023-05-17T00:10:59.827Z,90.70
2023-05-17T00:13:27.803Z,90.93
2023-05-17T00:15:55.672Z,91.43
2023-05-17T00:18:23.816Z,91.44
2023-05-17T00:20:53.099Z,91.33
2023-05-17T00:23:20.880Z,91.34
2023-05-17T00:25:48.699Z,91.43
2023-05-17T00:28:16.498Z,92.02
2023-05-17T00:30:44.515Z,92.17
2023-05-17T00:33:12.430Z,91.83
2023-05-17T00:35:41.331Z,92.89
2023-05-17T00:38:10.502Z,92.04
2023-05-17T00:40:38.303Z,92.32
2023-05-17T00:43:06.126Z,91.85
2023-05-17T00:45:33.935Z,92.02
2023-05-17T00:48:02.475Z,92.71
2023-05-17T00:50:30.390Z,92.60
2023-05-17T00:52:58.295Z,92.47
2023-05-17T00:55:28.076Z,92.43
2023-05-17T00:57:56.242Z,92.37
2023-05-17T01:00:24.688Z,92.28
2023-05-17T01:02:52.794Z,92.19
2023-05-17T01:05:20.691Z,92.17
2023-05-17T01:07:48.537Z,92.76
2023-05-17T01:10:16.483Z,92.38
2023-05-17T01:13:01.564Z,92.85
2023-05-17T01:15:33.759Z,93.53
2023-05-17T01:18:21.328Z,93.28
2023-05-17T01:20:51.059Z,93.61
2023-05-17T01:23:36.749Z,93.33
2023-05-17T01:26:09.135Z,93.61
2023-05-17T01:28:40.112Z,94.47
2023-05-17T01:31:09.513Z,94.58
2023-05-17T01:33:38.805Z,94.29
2023-05-17T01:36:08.902Z,94.58
2023-05-17T01:38:36.760Z,94.50
2023-05-17T01:41:09.047Z,94.46
2023-05-17T01:43:45.579Z,94.33
2023-05-17T01:46:20.202Z,95.23
2023-05-17T01:49:01.881Z,94.95
2023-05-17T01:51:34.474Z,96.02
2023-05-17T01:54:09.517Z,96.25
2023-05-17T01:56:42.073Z,96.47
2023-05-17T01:59:16.020Z,97.20
2023-05-17T02:01:44.368Z,96.58
2023-05-17T02:04:12.228Z,96.34
2023-05-17T02:06:41.539Z,96.00
2023-05-17T02:09:09.377Z,96.39
2023-05-17T02:11:37.967Z,96.60
2023-05-17T02:14:06.061Z,96.25
2023-05-17T02:16:36.569Z,97.11
2023-05-17T02:19:04.440Z,97.87
2023-05-17T02:21:32.334Z,97.58
2023-05-17T02:24:00.113Z,97.54
2023-05-17T02:26:27.922Z,98.13
2023-05-17T02:28:55.739Z,98.75
2023-05-17T02:31:24.935Z,98.97
2023-05-17T02:33:54.484Z,98.77
2023-05-17T02:36:22.621Z,99.16
2023-05-17T02:38:50.758Z,98.96
2023-05-17T02:41:18.677Z,99.52
2023-05-17T02:43:46.549Z,99.79
2023-05-17T02:46:14.456Z,100.00
2023-05-17T02:48:42.294Z,99.96
2023-05-17T02:51:11.701Z,100.00
2023-05-17T02:53:39.550Z,100.00
2023-05-17T02:56:08.404Z,99.88
2023-05-17T02:58:36.296Z,99.94
2023-05-17T03:01:04.076Z,99.73
2023-05-17T03:03:32.499Z,100.00
2023-05-17T03:06:01.890Z,99.70
2023-05-17T03:08:31.298Z,99.85
2023-05-17T03:10:59.086Z,99.14
2023-05-17T03:13:26.845Z,99.16
2023-05-17T03:15:55.138Z,99.62
2023-05-17T03:18:23.001Z,99.45
2023-05-17T03:20:50.872Z,99.65
2023-05-17T03:23:18.782Z,99.14
2023-05-17T03:25:47.980Z,98.88
2023-05-17T03:28:15.790Z,99.00
2023-05-17T03:30:43.684Z,98.68
2023-05-17T03:33:11.612Z,98.98
2023-05-17T03:35:39.472Z,99.21
2023-05-17T03:38:07.248Z,99.16
2023-05-17T03:40:35.113Z,99.11
2023-05-17T03:43:04.537Z,99.11
2023-05-17T03:45:32.314Z,99.45
2023-05-17T03:48:00.254Z,99.65
2023-05-17T03:50:28.263Z,99.49
2023-05-17T03:52:56.060Z,99.74
2023-05-17T03:55:24.179Z,99.96
2023-05-17T03:57:51.990Z,99.57
2023-05-17T04:00:22.426Z,99.58
2023-05-17T04:02:52.141Z,99.65
2023-05-17T04:05:20.847Z,99.37
2023-05-17T04:07:48.744Z,99.70
2023-05-17T04:10:16.861Z,99.84
2023-05-17T04:12:44.660Z,99.89
2023-05-17T04:15:12.875Z,100.00
2023-05-17T04:17:42.168Z,99.85
2023-05-17T04:20:11.172Z,99.79
2023-05-17T04:22:38.974Z,99.51
2023-05-17T04:25:08.454Z,99.06
2023-05-17T04:27:36.795Z,98.64
2023-05-17T04:30:05.395Z,97.81
2023-05-17T04:32:34.282Z,96.50
2023-05-17T04:35:03.521Z,96.41
2023-05-17T04:37:31.646Z,95.76
2023-05-17T04:39:59.775Z,95.18
2023-05-17T04:42:27.841Z,94.29
2023-05-17T04:44:57.790Z,93.97
2023-05-17T04:47:26.068Z,93.80
2023-05-17T04:49:53.919Z,93.55
2023-05-17T04:52:23.173Z,92.72
2023-05-17T04:54:52.185Z,92.92
2023-05-17T04:57:19.937Z,92.50
2023-05-17T04:59:47.729Z,92.94
2023-05-17T05:02:15.535Z,91.98
2023-05-17T05:04:43.459Z,91.84
2023-05-17T05:07:11.367Z,91.62
2023-05-17T05:09:40.602Z,91.57
2023-05-17T05:12:09.288Z,91.54
2023-05-17T05:14:37.021Z,91.25
2023-05-17T05:17:04.970Z,91.60
2023-05-17T05:19:32.913Z,91.68
2023-05-17T05:22:00.743Z,91.36
2023-05-17T05:24:28.609Z,91.00
2023-05-17T05:26:57.881Z,90.46
2023-05-17T05:29:25.683Z,90.66
2023-05-17T05:31:53.790Z,90.37
2023-05-17T05:34:21.607Z,90.28
2023-05-17T05:36:49.470Z,88.97
2023-05-17T05:39:17.392Z,89.06
2023-05-17T05:41:45.996Z,89.42
2023-05-17T05:44:15.269Z,87.98
2023-05-17T05:46:43.141Z,87.78
2023-05-17T05:49:11.000Z,87.25
2023-05-17T05:51:38.850Z,86.17
2023-05-17T05:54:09.508Z,84.67
2023-05-17T05:56:37.340Z,84.74
2023-05-17T05:59:05.121Z,83.73
2023-05-17T06:01:34.298Z,82.73
2023-05-17T06:04:02.270Z,82.89
2023-05-17T06:06:30.640Z,81.25
2023-05-17T06:08:59.742Z,80.79
2023-05-17T06:11:27.921Z,79.36
2023-05-17T06:13:55.795Z,79.80
2023-05-17T06:16:23.599Z,78.96
2023-05-17T06:18:52.783Z,77.18
2023-05-17T06:21:20.690Z,77.38
2023-05-17T06:23:48.898Z,77.23
2023-05-17T06:26:16.747Z,76.87
2023-05-17T06:28:44.544Z,72.63
2023-05-17T06:31:12.340Z,71.10
2023-05-17T06:33:40.162Z,71.53
2023-05-17T06:36:09.883Z,71.33
2023-05-17T06:38:37.629Z,71.95
2023-05-17T06:41:05.480Z,71.45
2023-05-17T06:43:35.528Z,72.56
2023-05-17T06:46:04.198Z,69.32
2023-05-17T06:48:32.198Z,69.04
2023-05-17T06:51:00.061Z,68.94
2023-05-17T06:53:29.222Z,66.59
2023-05-17T06:55:57.063Z,65.09
2023-05-17T06:58:24.822Z,64.61
2023-05-17T07:00:52.766Z,65.50
2023-05-17T07:03:20.786Z,65.28
2023-05-17T07:05:48.667Z,65.88
2023-05-17T07:08:16.493Z,63.39
2023-05-17T07:10:45.707Z,64.95
2023-05-17T07:13:13.532Z,65.51
2023-05-17T07:15:41.552Z,64.50
2023-05-17T07:18:09.461Z,63.84
2023-05-17T07:20:37.475Z,62.75
2023-05-17T07:23:05.367Z,63.29
2023-05-17T07:25:33.155Z,63.23
2023-05-17T07:28:02.393Z,63.05
2023-05-17T07:30:30.207Z,61.97
2023-05-17T07:32:58.087Z,60.84
2023-05-17T07:35:25.944Z,59.76
2023-05-17T07:37:53.802Z,60.48
2023-05-17T07:40:22.104Z,59.28
2023-05-17T07:42:50.234Z,59.42
2023-05-17T07:45:20.036Z,59.42
2023-05-17T07:47:51.219Z,59.34
2023-05-17T07:50:19.635Z,58.05
2023-05-17T07:52:48.297Z,59.16
2023-05-17T07:55:17.149Z,60.12
2023-05-17T07:57:47.430Z,59.48
2023-05-17T08:00:19.317Z,58.67
2023-05-17T08:02:48.567Z,58.65
2023-05-17T08:05:16.769Z,57.37
2023-05-17T08:07:44.586Z,57.60
2023-05-17T08:10:13.001Z,57.58
2023-05-17T08:12:41.297Z,58.82
2023-05-17T08:15:10.014Z,58.63
2023-05-17T08:17:37.904Z,58.24
2023-05-17T08:20:08.919Z,58.82
2023-05-17T08:22:36.972Z,58.70
2023-05-17T08:25:05.181Z,58.74
2023-05-17T08:27:33.122Z,56.40
2023-05-17T08:30:00.987Z,54.51
2023-05-17T08:32:29.388Z,53.35
2023-05-17T08:34:57.873Z,54.26
2023-05-17T08:37:27.352Z,53.19
2023-05-17T08:39:55.300Z,54.18
2023-05-17T08:42:25.319Z,54.47
2023-05-17T08:44:54.023Z,52.31
2023-05-17T08:47:30.121Z,51.94
2023-05-17T08:50:00.613Z,51.62
2023-05-17T08:52:32.509Z,52.49
2023-05-17T08:55:05.198Z,52.35
2023-05-17T08:57:36.348Z,52.44
2023-05-17T09:00:12.495Z,52.27
2023-05-17T09:02:40.826Z,52.29
2023-05-17T09:05:09.979Z,51.46
2023-05-17T09:07:39.458Z,49.21
2023-05-17T09:10:08.430Z,47.01
2023-05-17T09:12:36.755Z,49.03
2023-05-17T09:15:15.981Z,48.44
2023-05-17T09:17:44.306Z,48.48
2023-05-17T09:20:13.135Z,49.93
2023-05-17T09:22:46.190Z,48.68
2023-05-17T09:25:14.201Z,48.31
2023-05-17T09:27:42.347Z,46.92
2023-05-17T09:30:12.724Z,48.65
2023-05-17T09:32:45.237Z,48.29
2023-05-17T09:35:13.602Z,47.75
2023-05-17T09:37:45.242Z,47.79
2023-05-17T09:40:24.534Z,46.60
2023-05-17T09:42:52.591Z,46.01
2023-05-17T09:45:23.934Z,44.53
2023-05-17T09:47:53.633Z,44.14
2023-05-17T09:50:25.968Z,44.67
2023-05-17T09:52:55.483Z,45.07
2023-05-17T09:55:27.844Z,44.24
2023-05-17T09:58:04.193Z,44.49
2023-05-17T10:00:32.702Z,45.38
2023-05-17T10:03:02.337Z,45.94
2023-05-17T10:05:30.864Z,44.72
2023-05-17T10:08:00.384Z,44.96
2023-05-17T10:10:28.750Z,43.94
2023-05-17T10:12:57.528Z,44.45
2023-05-17T10:15:26.385Z,45.19
2023-05-17T10:17:55.166Z,43.96
2023-05-17T10:20:23.522Z,44.69
2023-05-17T10:22:51.848Z,41.04
2023-05-17T10:25:22.441Z,41.20
2023-05-17T10:27:52.084Z,41.98
2023-05-17T10:30:21.304Z,39.39
2023-05-17T10:32:51.497Z,40.99
2023-05-17T10:35:20.790Z,41.83
2023-05-17T10:37:48.696Z,41.96
2023-05-17T10:40:20.280Z,42.13
2023-05-17T10:42:53.398Z,40.90
2023-05-17T10:45:23.287Z,40.60
2023-05-17T10:47:52.939Z,41.78
2023-05-17T10:50:24.272Z,40.35
2023-05-17T10:52:53.627Z,40.88
2023-05-17T10:55:22.392Z,41.60
2023-05-17T10:58:18.831Z,42.44
2023-05-17T11:00:48.969Z,42.71
2023-05-17T11:03:19.183Z,42.28
2023-05-17T11:06:24.604Z,40.61
2023-05-17T11:09:14.767Z,41.46
2023-05-17T11:12:05.420Z,43.04
2023-05-17T11:14:51.120Z,40.10
2023-05-17T11:17:21.009Z,41.58
2023-05-17T11:20:03.370Z,41.18
2023-05-17T11:22:38.673Z,40.19
2023-05-17T11:25:14.235Z,38.98
2023-05-17T11:27:46.979Z,40.31
2023-05-17T11:30:24.457Z,42.04
2023-05-17T11:32:54.363Z,42.65
2023-05-17T11:35:27.185Z,42.74
2023-05-17T11:38:12.865Z,41.60
2023-05-17T11:40:46.757Z,40.06
2023-05-17T11:43:16.259Z,40.88
2023-05-17T11:45:50.611Z,40.37
2023-05-17T11:48:22.384Z,40.42
2023-05-17T11:50:51.832Z,40.14
2023-05-17T11:53:20.081Z,41.20
2023-05-17T11:55:49.083Z,41.09
2023-05-17T11:58:18.712Z,42.75
2023-05-17T12:00:54.419Z,42.39
2023-05-17T12:03:23.460Z,43.14
2023-05-17T12:05:53.311Z,43.46
2023-05-17T12:08:23.152Z,43.40
2023-05-17T12:10:52.558Z,44.61
2023-05-17T12:13:20.954Z,43.64
2023-05-17T12:15:57.149Z,42.77
2023-05-17T12:18:25.233Z,42.86
2023-05-17T12:20:57.305Z,42.54
2023-05-17T12:23:30.616Z,43.05
2023-05-17T12:26:06.551Z,43.65
2023-05-17T12:28:34.684Z,43.51
2023-05-17T12:31:05.096Z,42.60
2023-05-17T12:33:34.977Z,42.63
2023-05-17T12:36:04.692Z,43.43
2023-05-17T12:38:33.713Z,44.02
2023-05-17T12:41:06.189Z,45.00
2023-05-17T12:43:34.724Z,42.98
2023-05-17T12:46:09.509Z,42.94
2023-05-17T12:48:38.651Z,44.62
2023-05-17T12:51:12.257Z,44.28
2023-05-17T12:53:40.570Z,43.90
2023-05-17T12:56:09.354Z,44.23
2023-05-17T12:58:37.631Z,44.63
2023-05-17T13:01:08.247Z,44.60
2023-05-17T13:03:38.170Z,44.61
2023-05-17T13:06:09.528Z,43.53
2023-05-17T13:08:38.250Z,43.64
2023-05-17T13:11:13.668Z,43.03
2023-05-17T13:13:42.317Z,41.72
2023-05-17T13:16:10.165Z,42.31
2023-05-17T13:18:50.869Z,43.02
2023-05-17T13:21:20.049Z,42.97
2023-05-17T13:23:49.001Z,42.97
2023-05-17T13:26:17.587Z,42.86
2023-05-17T13:28:46.038Z,44.63
2023-05-17T13:31:14.048Z,44.45
2023-05-17T13:33:41.894Z,44.10
2023-05-17T13:36:12.181Z,44.18
2023-05-17T13:38:39.944Z,45.12
2023-05-17T13:41:09.374Z,44.83
2023-05-17T13:43:37.264Z,42.11
2023-05-17T13:46:05.108Z,41.69
2023-05-17T13:48:33.084Z,44.47
2023-05-17T13:51:02.001Z,42.61
2023-05-17T13:53:31.374Z,43.83
2023-05-17T13:55:59.153Z,42.14
2023-05-17T13:58:26.963Z,42.40
2023-05-17T14:00:54.917Z,42.70
2023-05-17T14:03:22.797Z,43.37
2023-05-17T14:05:53.014Z,44.26
2023-05-17T14:08:21.192Z,43.22
2023-05-17T14:10:50.370Z,42.02
2023-05-17T14:13:18.203Z,42.07
2023-05-17T14:15:46.144Z,42.20
2023-05-17T14:18:14.029Z,43.02
2023-05-17T14:20:41.898Z,41.48
2023-05-17T14:23:09.674Z,42.01
2023-05-17T14:25:37.667Z,43.06
2023-05-17T14:28:07.207Z,44.51
2023-05-17T14:30:35.201Z,44.11
2023-05-17T14:33:03.065Z,40.68
2023-05-17T14:35:31.680Z,41.20
2023-05-17T14:37:59.471Z,42.76
2023-05-17T14:40:27.510Z,44.57
2023-05-17T14:42:56.901Z,44.30
2023-05-17T14:45:26.126Z,41.73
2023-05-17T14:47:54.036Z,43.90
2023-05-17T14:50:21.843Z,43.91
2023-05-17T14:52:49.756Z,43.51
2023-05-17T14:55:17.702Z,43.29
2023-05-17T14:57:45.939Z,43.09
2023-05-17T15:00:14.560Z,44.09
2023-05-17T15:02:44.061Z,44.20
2023-05-17T15:05:12.505Z,44.65
2023-05-17T15:07:40.567Z,45.64
2023-05-17T15:10:09.880Z,46.12
2023-05-17T15:12:37.798Z,44.82
2023-05-17T15:15:06.713Z,43.27
2023-05-17T15:17:34.687Z,44.99
2023-05-17T15:20:04.183Z,44.97
2023-05-17T15:22:31.928Z,45.04
2023-05-17T15:24:59.749Z,43.13
2023-05-17T15:27:27.677Z,45.08
2023-05-17T15:29:55.575Z,41.98
2023-05-17T15:32:23.620Z,44.64
2023-05-17T15:34:52.653Z,44.07
2023-05-17T15:37:23.048Z,44.08
2023-05-17T15:39:51.208Z,45.18
2023-05-17T15:42:21.869Z,43.34
2023-05-17T15:44:49.725Z,43.56
2023-05-17T15:47:17.814Z,45.34
2023-05-17T15:49:46.335Z,45.22
2023-05-17T15:52:14.146Z,44.44
2023-05-17T15:54:43.511Z,44.47
2023-05-17T15:57:11.358Z,44.30
2023-05-17T15:59:39.287Z,45.24
2023-05-17T16:02:07.459Z,45.24
2023-05-17T16:04:35.348Z,43.24
2023-05-17T16:07:03.240Z,44.20
2023-05-17T16:09:31.150Z,44.19
2023-05-17T16:12:00.337Z,44.43
2023-05-17T16:14:28.134Z,45.86
2023-05-17T16:16:56.102Z,44.51
2023-05-17T16:19:26.806Z,44.40
2023-05-17T16:21:54.680Z,46.43
2023-05-17T16:24:22.551Z,46.40
2023-05-17T16:26:50.426Z,45.88
2023-05-17T16:29:19.668Z,46.24
2023-05-17T16:31:49.018Z,45.49
2023-05-17T16:34:16.887Z,44.91
2023-05-17T16:36:47.725Z,46.88
2023-05-17T16:39:15.515Z,46.65
2023-05-17T16:41:43.350Z,46.20
2023-05-17T16:44:11.330Z,45.88
2023-05-17T16:46:40.748Z,47.97
2023-05-17T16:49:08.583Z,45.73
2023-05-17T16:51:36.394Z,47.86
2023-05-17T16:54:04.610Z,47.36
2023-05-17T16:56:32.460Z,47.23
2023-05-17T16:59:00.261Z,47.13
2023-05-17T17:01:28.080Z,48.13
2023-05-17T17:03:57.281Z,47.00
2023-05-17T17:06:25.490Z,46.40
2023-05-17T17:08:53.312Z,47.63
2023-05-17T17:11:21.860Z,47.46
2023-05-17T17:13:50.071Z,48.13
2023-05-17T17:16:18.460Z,46.09
2023-05-17T17:18:47.112Z,48.46
2023-05-17T17:21:16.454Z,47.42
2023-05-17T17:23:44.447Z,48.18
2023-05-17T17:26:12.626Z,47.86
2023-05-17T17:28:40.668Z,47.24
2023-05-17T17:31:08.567Z,48.50
2023-05-17T17:33:36.973Z,49.60
2023-05-17T17:36:05.473Z,49.61
2023-05-17T17:38:34.997Z,49.33
2023-05-17T17:41:03.142Z,48.71
2023-05-17T17:43:31.061Z,48.74
2023-05-17T17:45:58.918Z,48.20
2023-05-17T17:48:26.751Z,48.36
2023-05-17T17:50:54.617Z,49.37
2023-05-17T17:53:23.160Z,50.22
2023-05-17T17:55:52.444Z,50.29
2023-05-17T17:58:20.245Z,50.70
2023-05-17T18:00:48.389Z,50.37
2023-05-17T18:03:16.585Z,49.75
2023-05-17T18:05:44.594Z,50.08
2023-05-17T18:08:12.390Z,50.54
2023-05-17T18:10:41.304Z,51.69
2023-05-17T18:13:10.526Z,52.19
2023-05-17T18:15:38.381Z,52.56
2023-05-17T18:18:06.439Z,53.44
2023-05-17T18:20:34.422Z,52.88
2023-05-17T18:23:02.320Z,52.83
2023-05-17T18:25:30.139Z,52.34
2023-05-17T18:27:58.222Z,52.17
2023-05-17T18:30:27.587Z,51.89
2023-05-17T18:32:55.709Z,51.43
2023-05-17T18:35:23.818Z,51.94
2023-05-17T18:37:51.686Z,52.17
2023-05-17T18:40:19.786Z,52.31
2023-05-17T18:42:47.924Z,52.83
2023-05-17T18:45:15.853Z,53.12
2023-05-17T18:47:45.358Z,53.77
2023-05-17T18:50:13.257Z,53.69
2023-05-17T18:52:41.617Z,53.59
2023-05-17T18:55:09.985Z,52.89
2023-05-17T18:57:38.021Z,53.09
2023-05-17T19:00:07.560Z,53.39
2023-05-17T19:02:35.540Z,53.38
2023-05-17T19:05:05.298Z,53.46
2023-05-17T19:07:33.442Z,53.56
2023-05-17T19:10:01.705Z,54.19
2023-05-17T19:12:29.653Z,54.68
2023-05-17T19:14:57.619Z,54.57
2023-05-17T19:17:25.501Z,55.52
2023-05-17T19:19:53.542Z,55.50
2023-05-17T19:22:22.850Z,56.04
2023-05-17T19:24:51.238Z,56.00
2023-05-17T19:27:20.549Z,56.05
2023-05-17T19:29:49.123Z,56.44
2023-05-17T19:32:17.009Z,56.36
2023-05-17T19:34:44.940Z,56.78
2023-05-17T19:37:12.942Z,57.02
2023-05-17T19:39:42.150Z,57.07
2023-05-17T19:42:09.995Z,56.87
2023-05-17T19:44:37.956Z,56.85
2023-05-17T19:47:06.300Z,57.34
2023-05-17T19:49:34.161Z,57.46
2023-05-17T19:52:02.666Z,57.39
2023-05-17T19:54:30.577Z,57.69
2023-05-17T19:56:59.950Z,58.17
2023-05-17T19:59:27.805Z,58.41
2023-05-17T20:01:56.088Z,58.26
2023-05-17T20:04:24.312Z,58.48
2023-05-17T20:06:52.654Z,58.84
2023-05-17T20:09:21.550Z,58.75
2023-05-17T20:11:49.520Z,59.20
2023-05-17T20:14:18.843Z,59.65
2023-05-17T20:16:47.555Z,60.25
2023-05-17T20:19:15.556Z,60.31
2023-05-17T20:21:43.486Z,60.69
2023-05-17T20:24:11.425Z,60.90
2023-05-17T20:26:39.644Z,61.07
2023-05-17T20:29:08.745Z,61.02
2023-05-17T20:31:38.820Z,61.09
2023-05-17T20:34:07.565Z,61.52
2023-05-17T20:36:36.014Z,61.72
2023-05-17T20:39:03.846Z,61.91
2023-05-17T20:41:31.683Z,61.74
2023-05-17T20:43:59.513Z,62.13
2023-05-17T20:46:29.709Z,62.50
2023-05-17T20:49:01.194Z,63.44
2023-05-17T20:51:29.057Z,63.11
2023-05-17T20:53:56.899Z,63.59
2023-05-17T20:56:25.634Z,64.00
2023-05-17T20:58:53.467Z,64.33
2023-05-17T21:01:21.407Z,63.96
2023-05-17T21:03:51.349Z,63.99
2023-05-17T21:06:22.131Z,64.38
2023-05-17T21:08:49.953Z,64.42
2023-05-17T21:11:21.290Z,64.81
2023-05-17T21:13:49.402Z,64.78
2023-05-17T21:16:17.730Z,64.83
2023-05-17T21:18:46.134Z,65.07
2023-05-17T21:21:14.331Z,65.17
2023-05-17T21:23:43.545Z,65.47
2023-05-17T21:26:11.399Z,65.33
2023-05-17T21:28:39.326Z,65.60
2023-05-17T21:31:07.284Z,65.67
2023-05-17T21:33:35.242Z,66.44
2023-05-17T21:36:03.498Z,66.03
2023-05-17T21:38:31.370Z,66.54
2023-05-17T21:41:00.700Z,65.82
2023-05-17T21:43:28.706Z,66.79
2023-05-17T21:45:56.626Z,66.57
2023-05-17T21:48:25.424Z,66.96
2023-05-17T21:50:53.239Z,66.98
2023-05-17T21:53:21.098Z,67.08
2023-05-17T21:56:01.456Z,67.28
2023-05-17T21:58:31.977Z,66.88
2023-05-17T22:00:59.901Z,67.34
2023-05-17T22:03:27.861Z,67.43
2023-05-17T22:05:55.778Z,67.01
2023-05-17T22:08:23.691Z,67.33
2023-05-17T22:10:51.768Z,67.17
2023-05-17T22:13:25.386Z,67.69
2023-05-17T22:15:57.446Z,68.07
2023-05-17T22:18:27.021Z,67.90
2023-05-17T22:20:59.172Z,67.92
2023-05-17T22:23:27.303Z,67.67
2023-05-17T22:25:57.171Z,67.84
2023-05-17T22:28:24.987Z,68.16
2023-05-17T22:30:55.119Z,68.40
2023-05-17T22:33:23.562Z,67.90
2023-05-17T22:35:53.579Z,67.93
2023-05-17T22:38:23.496Z,68.74
2023-05-17T22:40:51.374Z,68.77
2023-05-17T22:43:21.373Z,69.03
2023-05-17T22:45:51.102Z,69.09
2023-05-17T22:48:21.038Z,68.82
2023-05-17T22:50:49.046Z,68.99
2023-05-17T22:53:18.737Z,69.46
2023-05-17T22:55:49.063Z,70.14
2023-05-17T22:58:17.027Z,70.25
2023-05-17T23:00:45.232Z,70.06
2023-05-17T23:03:13.567Z,70.74
2023-05-17T23:05:43.312Z,70.35
2023-05-17T23:08:12.883Z,71.19
2023-05-17T23:10:40.944Z,70.94
2023-05-17T23:13:08.822Z,71.83
2023-05-17T23:15:37.185Z,71.15
2023-05-17T23:18:08.264Z,71.81
2023-05-17T23:20:36.206Z,71.97
2023-05-17T23:23:06.425Z,72.70
2023-05-17T23:25:34.338Z,72.52
2023-05-17T23:28:04.639Z,72.24
2023-05-17T23:30:32.730Z,73.31
2023-05-17T23:33:02.577Z,73.40
2023-05-17T23:35:30.747Z,73.19
2023-05-17T23:37:58.797Z,73.45
2023-05-17T23:40:27.924Z,73.19
2023-05-17T23:42:55.918Z,73.61
2023-05-17T23:45:23.933Z,74.53
2023-05-17T23:47:51.853Z,74.00
2023-05-17T23:50:19.688Z,74.69
2023-05-17T23:52:47.544Z,75.01
2023-05-17T23:55:15.488Z,74.41
2023-05-17T23:57:44.672Z,75.11
